createdAt,value
2023-05-08T00:01:25.340Z,15.85
2023-05-08T00:03:53.013Z,15.73
2023-05-08T00:06:19.825Z,17.45
2023-05-08T00:08:46.365Z,18.63
2023-05-08T00:11:12.997Z,18.08
2023-05-08T00:13:41.328Z,17.23
2023-05-08T00:16:12.688Z,17.45
2023-05-08T00:18:40.147Z,16.33
2023-05-08T00:21:07.402Z,15.32
2023-05-08T00:23:34.408Z,16.30
2023-05-08T00:26:01.031Z,16.33
2023-05-08T00:28:27.850Z,17.95
2023-05-08T00:30:54.436Z,16.92
2023-05-08T00:33:21.025Z,16.67
2023-05-08T00:35:47.623Z,16.17
2023-05-08T00:38:14.145Z,15.95
2023-05-08T00:40:41.014Z,14.75
2023-05-08T00:43:10.044Z,15.85
2023-05-08T00:45:39.349Z,14.88
2023-05-08T00:48:07.421Z,15.20
2023-05-08T00:50:34.210Z,14.40
2023-05-08T00:53:03.860Z,15.70
2023-05-08T00:55:32.063Z,15.63
2023-05-08T00:57:58.840Z,14.80
2023-05-08T01:00:25.917Z,14.23
2023-05-08T01:02:52.609Z,15.48
2023-05-08T01:05:19.316Z,14.40
2023-05-08T01:07:46.230Z,14.55
2023-05-08T01:10:12.887Z,14.82
2023-05-08T01:13:11.588Z,14.30
2023-05-08T01:15:50.722Z,16.02
2023-05-08T01:18:23.194Z,13.45
2023-05-08T01:20:59.583Z,13.45
2023-05-08T01:23:47.324Z,14.75
2023-05-08T01:26:31.504Z,13.10
2023-05-08T01:29:23.976Z,14.23
2023-05-08T01:32:24.959Z,14.95
2023-05-08T01:35:00.508Z,12.63
2023-05-08T01:37:37.967Z,11.70
2023-05-08T01:40:34.001Z,12.60
2023-05-08T01:43:05.318Z,10.85
2023-05-08T01:45:40.407Z,11.70
2023-05-08T01:48:13.760Z,12.57
2023-05-08T01:50:47.598Z,13.30
2023-05-08T01:53:29.517Z,11.48
2023-05-08T01:56:05.450Z,12.48
2023-05-08T01:58:34.443Z,11.95
2023-05-08T02:01:02.338Z,11.18
2023-05-08T02:03:31.844Z,14.02
2023-05-08T02:06:00.632Z,12.65
2023-05-08T02:08:29.826Z,11.40
2023-05-08T02:10:59.006Z,11.73
2023-05-08T02:13:27.519Z,10.38
2023-05-08T02:15:56.397Z,10.57
2023-05-08T02:18:25.946Z,9.27
2023-05-08T02:20:54.394Z,11.02
2023-05-08T02:23:23.555Z,15.05
2023-05-08T02:25:51.796Z,10.15
2023-05-08T02:28:19.664Z,10.40
2023-05-08T02:30:47.430Z,9.60
2023-05-08T02:33:15.979Z,10.98
2023-05-08T02:35:45.006Z,9.35
2023-05-08T02:38:12.621Z,8.82
2023-05-08T02:40:47.473Z,8.95
2023-05-08T02:43:14.181Z,10.38
2023-05-08T02:45:52.325Z,8.63
2023-05-08T02:48:24.989Z,9.73
2023-05-08T02:51:04.807Z,8.65
2023-05-08T02:54:10.860Z,8.85
2023-05-08T02:56:58.256Z,10.23
2023-05-08T02:59:50.740Z,8.43
2023-05-08T03:02:40.721Z,8.52
2023-05-08T03:05:15.613Z,9.65
2023-05-08T03:07:43.366Z,8.50
2023-05-08T03:10:16.063Z,7.80
2023-05-08T03:12:49.821Z,9.20
2023-05-08T03:15:24.091Z,9.10
2023-05-08T03:17:54.949Z,8.10
2023-05-08T03:20:24.901Z,7.60
2023-05-08T03:22:54.163Z,8.00
2023-05-08T03:25:21.434Z,6.90
2023-05-08T03:27:49.089Z,6.45
2023-05-08T03:30:16.965Z,8.40
2023-05-08T03:32:46.245Z,9.38
2023-05-08T03:35:14.726Z,5.78
2023-05-08T03:37:42.714Z,8.25
2023-05-08T03:40:09.816Z,6.38
2023-05-08T03:42:38.473Z,7.72
2023-05-08T03:45:07.152Z,7.43
2023-05-08T03:47:35.914Z,5.80
2023-05-08T03:50:03.059Z,7.35
2023-05-08T03:52:30.320Z,7.05
2023-05-08T03:54:56.855Z,7.95
2023-05-08T03:57:30.713Z,6.68
2023-05-08T04:00:11.811Z,6.43
2023-05-08T04:02:46.993Z,6.10
2023-05-08T04:05:37.785Z,6.47
2023-05-08T04:08:34.383Z,5.97
2023-05-08T04:11:00.854Z,6.53
2023-05-08T04:13:31.077Z,5.97
2023-05-08T04:16:17.386Z,5.70
2023-05-08T04:18:48.013Z,5.90
2023-05-08T04:21:23.193Z,6.32
2023-05-08T04:23:51.460Z,6.30
2023-05-08T04:26:19.002Z,6.22
2023-05-08T04:28:49.261Z,6.63
2023-05-08T04:31:16.681Z,6.70
2023-05-08T04:33:44.964Z,6.22
2023-05-08T04:36:13.852Z,6.32
2023-05-08T04:38:41.187Z,5.10
2023-05-08T04:41:08.533Z,6.90
2023-05-08T04:43:36.149Z,6.22
2023-05-08T04:46:06.114Z,9.70
2023-05-08T04:48:33.863Z,5.72
2023-05-08T04:51:01.032Z,6.55
2023-05-08T04:53:27.641Z,5.85
2023-05-08T04:55:54.256Z,6.68
2023-05-08T04:58:20.942Z,4.78
2023-05-08T05:00:48.634Z,6.28
2023-05-08T05:03:15.246Z,6.00
2023-05-08T05:05:41.909Z,6.30
2023-05-08T05:08:08.465Z,7.00
2023-05-08T05:10:34.982Z,7.85
2023-05-08T05:13:01.540Z,5.72
2023-05-08T05:15:28.101Z,6.13
2023-05-08T05:17:54.636Z,6.10
2023-05-08T05:20:21.140Z,5.97
2023-05-08T05:22:47.751Z,6.50
2023-05-08T05:25:14.623Z,8.43
2023-05-08T05:27:41.448Z,6.40
2023-05-08T05:30:08.434Z,6.05
2023-05-08T05:32:35.073Z,5.57
2023-05-08T05:35:01.711Z,7.10
2023-05-08T05:37:28.228Z,7.00
2023-05-08T05:39:54.768Z,6.43
2023-05-08T05:42:21.613Z,5.78
2023-05-08T05:44:48.184Z,5.60
2023-05-08T05:47:14.835Z,6.15
2023-05-08T05:49:46.624Z,6.22
2023-05-08T05:52:14.255Z,5.82
2023-05-08T05:54:44.021Z,6.38
2023-05-08T05:57:10.563Z,6.72
2023-05-08T05:59:37.373Z,7.38
2023-05-08T06:02:04.085Z,8.60
2023-05-08T06:04:30.761Z,6.32
2023-05-08T06:06:57.303Z,7.82
2023-05-08T06:09:23.915Z,6.80
2023-05-08T06:11:50.449Z,8.00
2023-05-08T06:14:16.966Z,6.80
2023-05-08T06:16:44.921Z,7.40
2023-05-08T06:19:12.196Z,6.55
2023-05-08T06:21:39.853Z,7.13
2023-05-08T06:24:06.913Z,9.35
2023-05-08T06:26:33.462Z,6.85
2023-05-08T06:29:00.039Z,6.72
2023-05-08T06:31:27.159Z,7.90
2023-05-08T06:33:53.792Z,7.97
2023-05-08T06:36:20.516Z,8.52
2023-05-08T06:38:47.053Z,6.97
2023-05-08T06:41:15.158Z,7.78
2023-05-08T06:43:42.001Z,6.93
2023-05-08T06:46:08.773Z,7.57
2023-05-08T06:48:35.586Z,7.60
2023-05-08T06:51:02.686Z,6.10
2023-05-08T06:53:29.275Z,6.80
2023-05-08T06:55:57.924Z,7.03
2023-05-08T06:58:24.754Z,6.50
2023-05-08T07:00:51.430Z,6.93
2023-05-08T07:03:18.019Z,7.75
2023-05-08T07:05:44.578Z,7.47
2023-05-08T07:08:11.209Z,6.18
2023-05-08T07:10:37.780Z,8.90
2023-05-08T07:13:04.361Z,8.35
2023-05-08T07:15:34.097Z,7.93
2023-05-08T07:18:00.836Z,7.57
2023-05-08T07:20:27.851Z,8.00
2023-05-08T07:22:54.525Z,7.82
2023-05-08T07:25:21.096Z,7.22
2023-05-08T07:27:47.877Z,8.65
2023-05-08T07:30:14.736Z,8.98
2023-05-08T07:32:41.409Z,9.45
2023-05-08T07:35:11.130Z,9.77
2023-05-08T07:37:38.766Z,11.60
2023-05-08T07:40:05.823Z,11.38
2023-05-08T07:42:44.345Z,9.10
2023-05-08T07:45:12.664Z,9.32
2023-05-08T07:47:49.342Z,11.18
2023-05-08T07:50:16.026Z,8.63
2023-05-08T07:52:42.565Z,8.77
2023-05-08T07:55:09.384Z,10.15
2023-05-08T07:57:40.606Z,10.02
2023-05-08T08:00:08.714Z,8.82
2023-05-08T08:02:35.329Z,10.98
2023-05-08T08:05:02.004Z,8.88
2023-05-08T08:07:28.537Z,11.15
2023-05-08T08:09:55.801Z,11.45
2023-05-08T08:12:23.770Z,12.15
2023-05-08T08:14:50.367Z,11.32
2023-05-08T08:17:17.517Z,12.98
2023-05-08T08:19:44.241Z,13.07
2023-05-08T08:22:10.762Z,16.67
2023-05-08T08:24:37.357Z,15.50
2023-05-08T08:27:04.241Z,19.30
2023-05-08T08:29:31.501Z,20.58
2023-05-08T08:31:58.161Z,19.25
2023-05-08T08:34:24.885Z,18.67
2023-05-08T08:36:51.489Z,22.33
2023-05-08T08:39:17.965Z,18.67
2023-05-08T08:41:44.620Z,24.77
2023-05-08T08:44:11.203Z,22.15
2023-05-08T08:46:39.886Z,24.88
2023-05-08T08:49:09.678Z,21.60
2023-05-08T08:51:50.403Z,21.05
2023-05-08T08:54:23.271Z,23.27
2023-05-08T08:56:52.021Z,22.42
2023-05-08T08:59:19.706Z,23.02
2023-05-08T09:01:53.699Z,24.02
2023-05-08T09:04:20.399Z,22.50
2023-05-08T09:06:49.412Z,24.85
2023-05-08T09:09:16.457Z,22.00
2023-05-08T09:11:46.009Z,25.63
2023-05-08T09:14:12.912Z,21.67
2023-05-08T09:16:40.165Z,22.73
2023-05-08T09:19:07.382Z,24.58
2023-05-08T09:21:34.442Z,24.90
2023-05-08T09:24:03.215Z,26.17
2023-05-08T09:26:40.228Z,23.52
2023-05-08T09:29:17.992Z,24.13
2023-05-08T09:31:50.137Z,25.27
2023-05-08T09:34:31.189Z,26.85
2023-05-08T09:37:09.552Z,31.10
2023-05-08T09:39:36.214Z,37.85
2023-05-08T09:42:04.589Z,38.72
2023-05-08T09:44:46.079Z,35.42
2023-05-08T09:47:17.869Z,40.53
2023-05-08T09:50:10.114Z,42.72
2023-05-08T09:52:38.083Z,36.65
2023-05-08T09:55:08.985Z,40.15
2023-05-08T09:57:41.036Z,34.83
2023-05-08T10:00:10.359Z,42.47
2023-05-08T10:02:38.682Z,38.92
2023-05-08T10:05:23.873Z,43.42
2023-05-08T10:07:50.841Z,48.75
2023-05-08T10:10:26.138Z,48.83
2023-05-08T10:12:55.070Z,53.38
2023-05-08T10:15:28.916Z,46.53
2023-05-08T10:18:02.320Z,52.95
2023-05-08T10:20:30.774Z,47.35
2023-05-08T10:22:58.308Z,57.17
2023-05-08T10:25:26.325Z,51.28
2023-05-08T10:28:11.835Z,51.08
2023-05-08T10:30:42.846Z,50.60
2023-05-08T10:33:10.962Z,54.72
2023-05-08T10:35:37.802Z,50.40
2023-05-08T10:38:04.977Z,48.22
2023-05-08T10:40:31.622Z,50.33
2023-05-08T10:42:59.697Z,50.88
2023-05-08T10:45:27.006Z,50.72
2023-05-08T10:47:59.568Z,48.17
2023-05-08T10:50:57.946Z,48.10
2023-05-08T10:53:33.429Z,48.40
2023-05-08T10:56:00.177Z,47.42
2023-05-08T10:58:34.458Z,43.08
2023-05-08T11:01:01.216Z,44.08
2023-05-08T11:03:33.126Z,46.53
2023-05-08T11:06:01.426Z,40.45
2023-05-08T11:08:29.729Z,42.90
2023-05-08T11:11:07.888Z,38.97
2023-05-08T11:13:40.854Z,44.17
2023-05-08T11:16:08.169Z,40.83
2023-05-08T11:18:48.595Z,38.50
2023-05-08T11:21:22.022Z,38.78
2023-05-08T11:23:57.897Z,37.22
2023-05-08T11:26:40.466Z,38.10
2023-05-08T11:29:16.854Z,39.72
2023-05-08T11:31:51.147Z,33.00
2023-05-08T11:34:42.957Z,36.63
2023-05-08T11:37:29.326Z,36.47
2023-05-08T11:40:34.417Z,34.55
2023-05-08T11:43:19.895Z,34.90
2023-05-08T11:45:47.206Z,32.20
2023-05-08T11:48:16.120Z,33.42
2023-05-08T11:50:42.761Z,30.27
2023-05-08T11:53:09.475Z,36.50
2023-05-08T11:55:36.602Z,33.50
2023-05-08T11:58:12.122Z,31.10
2023-05-08T12:00:45.909Z,33.15
2023-05-08T12:03:21.175Z,31.55
2023-05-08T12:05:49.596Z,31.10
2023-05-08T12:08:17.100Z,32.55
2023-05-08T12:10:46.967Z,31.95
2023-05-08T12:13:18.085Z,34.60
2023-05-08T12:15:45.923Z,27.88
2023-05-08T12:18:12.882Z,31.08
2023-05-08T12:20:39.736Z,28.65
2023-05-08T12:23:06.286Z,33.13
2023-05-08T12:25:32.890Z,28.30
2023-05-08T12:28:02.657Z,31.92
2023-05-08T12:30:29.779Z,33.08
2023-05-08T12:32:56.609Z,30.80
2023-05-08T12:35:24.116Z,31.40
2023-05-08T12:37:52.426Z,29.95
2023-05-08T12:40:46.077Z,31.27
2023-05-08T12:43:12.740Z,33.53
2023-05-08T12:45:41.845Z,31.90
2023-05-08T12:48:10.637Z,35.75
2023-05-08T12:50:41.711Z,30.77
2023-05-08T12:53:16.353Z,26.65
2023-05-08T12:55:55.949Z,25.35
2023-05-08T12:58:27.820Z,26.27
2023-05-08T13:01:11.955Z,26.45
2023-05-08T13:03:39.594Z,24.27
2023-05-08T13:06:06.402Z,26.38
2023-05-08T13:08:35.437Z,23.30
2023-05-08T13:11:03.963Z,25.25
2023-05-08T13:13:32.458Z,27.38
2023-05-08T13:16:03.209Z,23.67
2023-05-08T13:18:30.506Z,26.58
2023-05-08T13:20:57.173Z,25.02
2023-05-08T13:23:24.259Z,24.90
2023-05-08T13:25:51.673Z,27.27
2023-05-08T13:28:18.237Z,24.92
2023-05-08T13:30:44.790Z,28.15
2023-05-08T13:33:11.396Z,25.10
2023-05-08T13:35:38.036Z,30.75
2023-05-08T13:38:04.723Z,33.38
2023-05-08T13:40:31.350Z,24.50
2023-05-08T13:42:57.920Z,22.38
2023-05-08T13:45:24.530Z,27.63
2023-05-08T13:47:51.388Z,23.98
2023-05-08T13:50:21.554Z,23.77
2023-05-08T13:52:48.692Z,24.88
2023-05-08T13:55:15.980Z,23.58
2023-05-08T13:57:43.063Z,22.65
2023-05-08T14:00:10.319Z,20.95
2023-05-08T14:02:37.852Z,22.48
2023-05-08T14:05:07.941Z,23.48
2023-05-08T14:07:35.387Z,23.05
2023-05-08T14:10:02.208Z,25.55
2023-05-08T14:12:28.829Z,24.00
2023-05-08T14:14:55.834Z,22.27
2023-05-08T14:17:22.412Z,22.98
2023-05-08T14:19:48.951Z,25.77
2023-05-08T14:22:15.596Z,24.85
2023-05-08T14:24:42.147Z,27.38
2023-05-08T14:27:08.857Z,24.55
2023-05-08T14:29:35.797Z,24.10
2023-05-08T14:32:02.418Z,21.75
2023-05-08T14:34:28.956Z,26.33
2023-05-08T14:36:55.615Z,24.05
2023-05-08T14:39:22.131Z,24.15
2023-05-08T14:42:10.338Z,24.00
2023-05-08T14:44:35.329Z,21.42
2023-05-08T14:47:01.952Z,25.00
2023-05-08T14:49:37.504Z,21.48
2023-05-08T14:52:05.967Z,20.98
2023-05-08T14:54:32.642Z,21.25
2023-05-08T14:56:59.569Z,25.23
2023-05-08T14:59:26.141Z,41.22
2023-05-08T15:01:52.744Z,31.80
2023-05-08T15:04:19.464Z,30.13
2023-05-08T15:06:46.174Z,30.83
2023-05-08T15:09:12.805Z,30.58
2023-05-08T15:11:39.456Z,28.42
2023-05-08T15:14:06.178Z,29.60
2023-05-08T15:16:32.804Z,28.85
2023-05-08T15:19:00.156Z,38.58
2023-05-08T15:21:27.551Z,44.47
2023-05-08T15:23:55.662Z,36.60
2023-05-08T15:26:23.019Z,46.08
2023-05-08T15:28:49.770Z,49.80
2023-05-08T15:31:16.770Z,59.10
2023-05-08T15:33:45.038Z,58.15
2023-05-08T15:36:15.473Z,65.55
2023-05-08T15:38:42.548Z,65.60
2023-05-08T15:41:15.129Z,66.47
2023-05-08T15:43:42.818Z,79.95
2023-05-08T15:46:09.666Z,122.80
2023-05-08T15:48:36.272Z,145.15
2023-05-08T15:51:02.869Z,138.68
2023-05-08T15:53:29.405Z,122.05
2023-05-08T15:55:57.106Z,108.65
2023-05-08T15:58:24.093Z,103.28
2023-05-08T16:00:50.896Z,104.00
2023-05-08T16:03:17.811Z,110.63
2023-05-08T16:05:44.656Z,96.60
2023-05-08T16:08:12.805Z,90.38
2023-05-08T16:10:41.023Z,96.45
2023-05-08T16:13:08.267Z,94.03
2023-05-08T16:15:35.088Z,90.75
2023-05-08T16:18:01.991Z,81.68
2023-05-08T16:20:28.781Z,91.80
2023-05-08T16:22:56.157Z,92.13
2023-05-08T16:25:23.219Z,87.90
2023-05-08T16:27:50.296Z,92.60
2023-05-08T16:30:17.392Z,89.38
2023-05-08T16:32:47.065Z,83.00
2023-05-08T16:35:14.726Z,85.80
2023-05-08T16:37:41.994Z,88.68
2023-05-08T16:40:09.807Z,86.88
2023-05-08T16:42:37.086Z,85.13
2023-05-08T16:45:04.885Z,86.75
2023-05-08T16:47:31.485Z,81.25
2023-05-08T16:49:58.422Z,82.07
2023-05-08T16:52:24.986Z,81.05
2023-05-08T16:54:51.838Z,85.50
2023-05-08T16:57:18.502Z,68.63
2023-05-08T16:59:45.043Z,82.95
2023-05-08T17:02:15.702Z,76.03
2023-05-08T17:04:42.250Z,78.88
2023-05-08T17:07:08.828Z,92.80
2023-05-08T17:09:35.410Z,86.88
2023-05-08T17:12:02.263Z,82.35
2023-05-08T17:14:28.787Z,78.70
2023-05-08T17:16:55.446Z,80.88
2023-05-08T17:19:22.160Z,80.28
2023-05-08T17:21:48.750Z,83.40
2023-05-08T17:24:15.265Z,74.20
2023-05-08T17:26:41.914Z,80.60
2023-05-08T17:29:08.534Z,76.78
2023-05-08T17:31:36.238Z,80.70
2023-05-08T17:34:03.020Z,70.78
2023-05-08T17:36:29.712Z,73.28
2023-05-08T17:38:56.286Z,71.93
2023-05-08T17:41:22.835Z,71.05
2023-05-08T17:43:49.358Z,66.15
2023-05-08T17:46:16.012Z,67.85
2023-05-08T17:48:42.660Z,74.93
2023-05-08T17:51:12.201Z,79.50
2023-05-08T17:53:39.552Z,72.63
2023-05-08T17:56:06.778Z,74.07
2023-05-08T17:58:33.318Z,73.13
2023-05-08T18:01:00.008Z,68.20
2023-05-08T18:03:26.656Z,70.80
2023-05-08T18:05:53.286Z,70.22
2023-05-08T18:08:19.818Z,79.43
2023-05-08T18:10:46.327Z,77.07
2023-05-08T18:13:13.041Z,75.50
2023-05-08T18:15:40.548Z,65.10
2023-05-08T18:18:07.157Z,67.18
2023-05-08T18:20:33.796Z,62.22
2023-05-08T18:23:00.420Z,71.32
2023-05-08T18:25:26.939Z,67.65
2023-05-08T18:27:53.637Z,66.13
2023-05-08T18:30:20.535Z,63.65
2023-05-08T18:32:47.152Z,59.20
2023-05-08T18:35:13.896Z,55.55
2023-05-08T18:37:40.452Z,57.10
2023-05-08T18:40:07.701Z,57.80
2023-05-08T18:42:34.230Z,57.55
2023-05-08T18:45:00.971Z,56.35
2023-05-08T18:47:27.594Z,55.90
2023-05-08T18:49:54.125Z,53.85
2023-05-08T18:52:20.629Z,58.63
2023-05-08T18:54:47.220Z,60.50
2023-05-08T18:57:13.815Z,83.07
2023-05-08T18:59:40.484Z,87.40
2023-05-08T19:02:07.018Z,85.05
2023-05-08T19:04:33.576Z,72.35
2023-05-08T19:07:00.867Z,72.65
2023-05-08T19:09:27.657Z,107.60
2023-05-08T19:11:54.253Z,83.47
2023-05-08T19:14:20.784Z,78.72
2023-05-08T19:16:47.277Z,81.50
2023-05-08T19:19:13.942Z,75.10
2023-05-08T19:21:40.492Z,69.78
2023-05-08T19:24:07.519Z,77.07
2023-05-08T19:26:34.045Z,79.18
2023-05-08T19:29:00.587Z,77.53
2023-05-08T19:31:27.136Z,70.00
2023-05-08T19:33:54.637Z,70.55
2023-05-08T19:36:21.212Z,71.13
2023-05-08T19:38:47.734Z,80.85
2023-05-08T19:41:14.278Z,76.03
2023-05-08T19:43:40.795Z,93.13
2023-05-08T19:46:07.389Z,106.90
2023-05-08T19:48:33.945Z,102.50
2023-05-08T19:51:07.780Z,108.65
2023-05-08T19:53:34.864Z,110.93
2023-05-08T19:56:01.422Z,106.57
2023-05-08T19:58:27.980Z,98.80
2023-05-08T20:00:54.617Z,99.35
2023-05-08T20:03:21.286Z,95.05
2023-05-08T20:05:48.024Z,101.95
2023-05-08T20:08:14.682Z,98.70
2023-05-08T20:10:41.400Z,114.15
2023-05-08T20:13:07.999Z,99.55
2023-05-08T20:15:34.573Z,112.95
2023-05-08T20:18:01.303Z,99.57
2023-05-08T20:20:29.618Z,93.90
2023-05-08T20:22:56.374Z,94.15
2023-05-08T20:25:23.075Z,96.90
2023-05-08T20:27:49.696Z,94.25
2023-05-08T20:30:16.505Z,90.57
2023-05-08T20:32:43.317Z,94.65
2023-05-08T20:35:09.932Z,91.82
2023-05-08T20:37:43.216Z,90.25
2023-05-08T20:40:10.265Z,84.22
2023-05-08T20:42:36.931Z,90.40
2023-05-08T20:45:03.864Z,90.07
2023-05-08T20:47:30.477Z,86.72
2023-05-08T20:50:00.226Z,89.00
2023-05-08T20:52:26.754Z,84.65
2023-05-08T20:54:53.329Z,87.88
2023-05-08T20:57:19.870Z,86.18
2023-05-08T20:59:47.284Z,89.68
2023-05-08T21:02:14.154Z,84.07
2023-05-08T21:04:40.837Z,84.20
2023-05-08T21:07:07.432Z,83.43
2023-05-08T21:09:34.150Z,82.90
2023-05-08T21:12:00.706Z,80.07
2023-05-08T21:14:27.243Z,83.45
2023-05-08T21:16:56.630Z,84.38
2023-05-08T21:19:23.769Z,80.30
2023-05-08T21:21:50.348Z,80.40
2023-05-08T21:24:17.129Z,80.47
2023-05-08T21:26:43.671Z,81.63
2023-05-08T21:29:10.956Z,79.68
2023-05-08T21:31:37.654Z,79.07
2023-05-08T21:34:04.334Z,75.32
2023-05-08T21:36:32.147Z,75.97
2023-05-08T21:38:58.729Z,75.85
2023-05-08T21:41:25.321Z,76.43
2023-05-08T21:43:54.964Z,76.65
2023-05-08T21:46:21.655Z,75.43
2023-05-08T21:48:48.197Z,72.90
2023-05-08T21:51:14.828Z,78.10
2023-05-08T21:53:41.422Z,74.55
2023-05-08T21:56:08.002Z,70.80
2023-05-08T21:58:34.548Z,70.78
2023-05-08T22:01:01.390Z,69.38
2023-05-08T22:03:28.056Z,70.68
2023-05-08T22:05:55.551Z,72.22
2023-05-08T22:08:22.129Z,71.03
2023-05-08T22:10:48.708Z,72.55
2023-05-08T22:13:15.305Z,72.53
2023-05-08T22:15:42.535Z,71.20
2023-05-08T22:18:09.207Z,68.47
2023-05-08T22:20:35.827Z,68.32
2023-05-08T22:23:03.581Z,69.28
2023-05-08T22:25:30.416Z,67.70
2023-05-08T22:27:57.196Z,70.03
2023-05-08T22:30:23.756Z,68.65
2023-05-08T22:32:56.194Z,67.03
2023-05-08T22:35:24.517Z,65.32
2023-05-08T22:37:52.399Z,69.10
2023-05-08T22:40:19.418Z,62.90
2023-05-08T22:42:46.602Z,68.63
2023-05-08T22:45:14.336Z,65.78
2023-05-08T22:47:41.320Z,65.63
2023-05-08T22:50:09.178Z,66.75
2023-05-08T22:52:36.619Z,65.10
2023-05-08T22:55:03.900Z,64.25
2023-05-08T22:57:30.772Z,64.13
2023-05-08T22:59:57.304Z,64.25
2023-05-08T23:02:24.058Z,63.28
2023-05-08T23:04:50.711Z,58.85
2023-05-08T23:07:17.363Z,63.10
2023-05-08T23:09:43.896Z,59.58
2023-05-08T23:12:10.449Z,58.95
2023-05-08T23:14:36.949Z,57.75
2023-05-08T23:17:03.586Z,60.28
2023-05-08T23:19:30.150Z,61.10
2023-05-08T23:21:56.661Z,58.53
2023-05-08T23:24:23.244Z,54.60
2023-05-08T23:26:49.911Z,57.95
2023-05-08T23:29:16.609Z,58.47
2023-05-08T23:31:43.269Z,58.67
2023-05-08T23:34:09.877Z,55.95
2023-05-08T23:36:36.458Z,56.53
2023-05-08T23:39:03.143Z,55.30
2023-05-08T23:41:29.652Z,57.67
2023-05-08T23:43:56.188Z,56.95
2023-05-08T23:46:22.721Z,56.05
2023-05-08T23:48:49.268Z,56.13
2023-05-08T23:51:15.770Z,56.88
2023-05-08T23:53:42.301Z,52.88
2023-05-08T23:56:09.055Z,51.55
2023-05-08T23:58:35.591Z,52.95
